sensor_id;sensor_type;location;lat;lon;timestamp;pressure;altitude;pressure_sealevel;temperature;humidity
73600;BME280;61877;48.246;9.220;2022-07-29T00:02:13;94120.91;;;16.93;86.70
73600;BME280;61877;48.246;9.220;2022-07-29T00:04:40;94111.50;;;16.80;86.40
73600;BME280;61877;48.246;9.220;2022-07-29T00:07:06;94113.81;;;16.74;85.97
73600;BME280;61877;48.246;9.220;2022-07-29T00:09:31;94114.16;;;16.69;86.48
73600;BME280;61877;48.246;9.220;2022-07-29T00:11:59;94110.25;;;16.67;86.08
73600;BME280;61877;48.246;9.220;2022-07-29T00:14:25;94110.56;;;16.58;86.61
73600;BME280;61877;48.246;9.220;2022-07-29T00:16:51;94107.00;;;16.51;87.18
73600;BME280;61877;48.246;9.220;2022-07-29T00:19:16;94106.63;;;16.52;87.13
73600;BME280;61877;48.246;9.220;2022-07-29T00:21:43;94100.78;;;16.47;86.96
73600;BME280;61877;48.246;9.220;2022-07-29T00:24:08;94104.59;;;16.42;86.46
73600;BME280;61877;48.246;9.220;2022-07-29T00:26:34;94099.09;;;16.35;86.77
73600;BME280;61877;48.246;9.220;2022-07-29T00:29:00;94097.53;;;16.34;86.84
73600;BME280;61877;48.246;9.220;2022-07-29T00:31:26;94093.63;;;16.32;87.13
73600;BME280;61877;48.246;9.220;2022-07-29T00:33:51;94096.72;;;16.30;87.14
73600;BME280;61877;48.246;9.220;2022-07-29T00:36:16;94093.56;;;16.21;86.87
73600;BME280;61877;48.246;9.220;2022-07-29T00:38:43;94091.97;;;16.20;86.44
73600;BME280;61877;48.246;9.220;2022-07-29T00:41:09;94088.16;;;16.21;86.98
73600;BME280;61877;48.246;9.220;2022-07-29T00:43:34;94092.84;;;16.28;87.66
73600;BME280;61877;48.246;9.220;2022-07-29T00:46:00;94088.19;;;16.28;86.91
73600;BME280;61877;48.246;9.220;2022-07-29T00:48:25;94078.06;;;16.22;86.55
73600;BME280;61877;48.246;9.220;2022-07-29T00:50:51;94083.06;;;16.16;86.68
73600;BME280;61877;48.246;9.220;2022-07-29T00:53:16;94077.56;;;16.09;86.63
73600;BME280;61877;48.246;9.220;2022-07-29T00:55:43;94074.88;;;16.09;87.25
73600;BME280;61877;48.246;9.220;2022-07-29T00:58:11;94076.72;;;16.02;86.65
73600;BME280;61877;48.246;9.220;2022-07-29T01:00:37;94072.84;;;15.99;86.85
73600;BME280;61877;48.246;9.220;2022-07-29T01:03:02;94069.84;;;16.08;87.42
73600;BME280;61877;48.246;9.220;2022-07-29T01:05:28;94070.22;;;16.06;87.43
73600;BME280;61877;48.246;9.220;2022-07-29T01:07:57;94074.03;;;16.05;87.71
73600;BME280;61877;48.246;9.220;2022-07-29T01:10:22;94066.25;;;16.00;87.87
73600;BME280;61877;48.246;9.220;2022-07-29T01:12:51;94063.97;;;16.02;86.86
73600;BME280;61877;48.246;9.220;2022-07-29T01:15:20;94062.38;;;15.98;87.20
73600;BME280;61877;48.246;9.220;2022-07-29T01:17:50;94062.03;;;16.03;87.42
73600;BME280;61877;48.246;9.220;2022-07-29T01:20:21;94055.44;;;16.00;86.84
73600;BME280;61877;48.246;9.220;2022-07-29T01:23:05;94052.41;;;16.05;86.80
73600;BME280;61877;48.246;9.220;2022-07-29T01:25:46;94053.13;;;16.02;86.05
73600;BME280;61877;48.246;9.220;2022-07-29T01:28:41;94051.59;;;16.01;86.48
73600;BME280;61877;48.246;9.220;2022-07-29T01:31:10;94051.63;;;16.05;87.01
73600;BME280;61877;48.246;9.220;2022-07-29T01:33:41;94049.69;;;16.05;86.35
73600;BME280;61877;48.246;9.220;2022-07-29T01:36:11;94045.47;;;16.08;86.17
73600;BME280;61877;48.246;9.220;2022-07-29T01:38:41;94039.34;;;16.14;86.38
73600;BME280;61877;48.246;9.220;2022-07-29T01:41:09;94042.44;;;16.13;86.80
73600;BME280;61877;48.246;9.220;2022-07-29T01:43:44;94036.69;;;16.18;86.38
73600;BME280;61877;48.246;9.220;2022-07-29T01:46:13;94034.00;;;16.21;85.61
73600;BME280;61877;48.246;9.220;2022-07-29T01:48:43;94035.88;;;16.17;85.70
73600;BME280;61877;48.246;9.220;2022-07-29T01:51:14;94032.78;;;16.15;86.19
73600;BME280;61877;48.246;9.220;2022-07-29T01:53:46;94027.81;;;16.21;85.61
73600;BME280;61877;48.246;9.220;2022-07-29T01:56:13;94034.03;;;16.28;85.35
73600;BME280;61877;48.246;9.220;2022-07-29T01:58:43;94029.38;;;16.25;85.31
73600;BME280;61877;48.246;9.220;2022-07-29T02:01:12;94025.94;;;16.28;86.04
73600;BME280;61877;48.246;9.220;2022-07-29T02:03:39;94023.28;;;16.35;85.37
73600;BME280;61877;48.246;9.220;2022-07-29T02:06:09;94035.25;;;16.31;85.07
73600;BME280;61877;48.246;9.220;2022-07-29T02:08:36;94025.97;;;16.32;85.77
73600;BME280;61877;48.246;9.220;2022-07-29T02:11:04;94017.88;;;16.35;85.93
73600;BME280;61877;48.246;9.220;2022-07-29T02:13:31;94021.75;;;16.34;85.95
73600;BME280;61877;48.246;9.220;2022-07-29T02:16:00;94014.50;;;16.45;85.68
73600;BME280;61877;48.246;9.220;2022-07-29T02:18:28;94021.78;;;16.38;85.79
73600;BME280;61877;48.246;9.220;2022-07-29T02:20:56;94026.47;;;16.44;85.58
73600;BME280;61877;48.246;9.220;2022-07-29T02:23:24;94014.91;;;16.47;85.54
73600;BME280;61877;48.246;9.220;2022-07-29T02:25:53;94023.34;;;16.42;85.18
73600;BME280;61877;48.246;9.220;2022-07-29T02:28:21;94014.50;;;16.45;85.90
73600;BME280;61877;48.246;9.220;2022-07-29T02:30:49;94018.78;;;16.46;85.37
73600;BME280;61877;48.246;9.220;2022-07-29T02:33:18;94011.03;;;16.48;85.25
73600;BME280;61877;48.246;9.220;2022-07-29T02:35:46;94015.72;;;16.51;84.88
73600;BME280;61877;48.246;9.220;2022-07-29T02:38:13;94012.59;;;16.49;85.32
73600;BME280;61877;48.246;9.220;2022-07-29T02:40:41;94014.16;;;16.50;85.96
73600;BME280;61877;48.246;9.220;2022-07-29T02:43:08;94017.66;;;16.51;85.52
73600;BME280;61877;48.246;9.220;2022-07-29T02:45:35;94016.84;;;16.50;86.00
73600;BME280;61877;48.246;9.220;2022-07-29T02:48:09;94018.03;;;16.49;86.37
73600;BME280;61877;48.246;9.220;2022-07-29T02:50:38;94010.31;;;16.51;87.03
73600;BME280;61877;48.246;9.220;2022-07-29T02:53:12;94007.16;;;16.46;86.40
73600;BME280;61877;48.246;9.220;2022-07-29T02:55:43;94016.84;;;16.50;85.66
73600;BME280;61877;48.246;9.220;2022-07-29T02:58:13;94009.03;;;16.42;85.76
73600;BME280;61877;48.246;9.220;2022-07-29T03:00:41;94006.78;;;16.47;86.23
73600;BME280;61877;48.246;9.220;2022-07-29T03:03:12;94009.09;;;16.45;86.32
73600;BME280;61877;48.246;9.220;2022-07-29T03:05:39;94011.84;;;16.52;86.54
73600;BME280;61877;48.246;9.220;2022-07-29T03:08:07;94014.94;;;16.51;86.15
73600;BME280;61877;48.246;9.220;2022-07-29T03:10:34;94016.44;;;16.48;87.03
73600;BME280;61877;48.246;9.220;2022-07-29T03:13:00;94021.06;;;16.44;86.00
73600;BME280;61877;48.246;9.220;2022-07-29T03:15:26;94017.22;;;16.45;87.36
73600;BME280;61877;48.246;9.220;2022-07-29T03:17:52;94024.88;;;16.43;87.28
73600;BME280;61877;48.246;9.220;2022-07-29T03:20:18;94011.03;;;16.48;86.78
73600;BME280;61877;48.246;9.220;2022-07-29T03:22:45;94011.03;;;16.48;86.62
73600;BME280;61877;48.246;9.220;2022-07-29T03:25:12;94015.69;;;16.48;87.13
73600;BME280;61877;48.246;9.220;2022-07-29T03:27:37;94009.50;;;16.47;86.54
73600;BME280;61877;48.246;9.220;2022-07-29T03:30:03;94008.72;;;16.50;86.52
73600;BME280;61877;48.246;9.220;2022-07-29T03:32:29;94007.59;;;16.51;86.03
73600;BME280;61877;48.246;9.220;2022-07-29T03:34:55;94012.13;;;16.44;86.45
73600;BME280;61877;48.246;9.220;2022-07-29T03:37:20;94005.63;;;16.48;85.76
73600;BME280;61877;48.246;9.220;2022-07-29T03:39:48;94018.97;;;16.27;85.34
73600;BME280;61877;48.246;9.220;2022-07-29T03:42:16;94018.16;;;16.23;85.64
73600;BME280;61877;48.246;9.220;2022-07-29T03:44:46;94017.03;;;16.28;85.63
73600;BME280;61877;48.246;9.220;2022-07-29T03:47:13;94015.88;;;16.29;86.07
73600;BME280;61877;48.246;9.220;2022-07-29T03:49:40;94026.72;;;16.29;86.44
73600;BME280;61877;48.246;9.220;2022-07-29T03:52:07;94019.78;;;16.31;86.51
73600;BME280;61877;48.246;9.220;2022-07-29T03:54:33;94022.13;;;16.33;86.41
73600;BME280;61877;48.246;9.220;2022-07-29T03:57:01;94017.91;;;16.39;86.28
73600;BME280;61877;48.246;9.220;2022-07-29T03:59:27;94011.66;;;16.35;85.82
73600;BME280;61877;48.246;9.220;2022-07-29T04:01:53;94021.63;;;16.24;85.82
73600;BME280;61877;48.246;9.220;2022-07-29T04:04:21;94015.91;;;16.32;85.10
73600;BME280;61877;48.246;9.220;2022-07-29T04:06:46;94009.31;;;16.26;85.82
73600;BME280;61877;48.246;9.220;2022-07-29T04:09:12;94018.56;;;16.25;85.74
73600;BME280;61877;48.246;9.220;2022-07-29T04:11:39;94013.19;;;16.29;84.24
73600;BME280;61877;48.246;9.220;2022-07-29T04:14:06;94017.72;;;16.18;84.22
73600;BME280;61877;48.246;9.220;2022-07-29T04:16:32;94019.47;;;15.96;85.91
73600;BME280;61877;48.246;9.220;2022-07-29T04:18:57;94014.53;;;16.09;86.65
73600;BME280;61877;48.246;9.220;2022-07-29T04:21:23;94019.59;;;16.10;86.69
73600;BME280;61877;48.246;9.220;2022-07-29T04:23:49;94019.19;;;16.08;86.83
73600;BME280;61877;48.246;9.220;2022-07-29T04:26:14;94014.97;;;16.11;86.13
73600;BME280;61877;48.246;9.220;2022-07-29T04:28:40;94012.72;;;16.20;86.30
73600;BME280;61877;48.246;9.220;2022-07-29T04:31:06;94007.72;;;16.25;86.16
73600;BME280;61877;48.246;9.220;2022-07-29T04:33:32;94012.38;;;16.28;84.76
73600;BME280;61877;48.246;9.220;2022-07-29T04:35:57;94013.13;;;16.25;84.19
73600;BME280;61877;48.246;9.220;2022-07-29T04:38:23;94006.94;;;16.21;84.05
73600;BME280;61877;48.246;9.220;2022-07-29T04:40:48;94005.25;;;16.06;84.96
73600;BME280;61877;48.246;9.220;2022-07-29T04:43:14;94011.84;;;16.09;86.44
73600;BME280;61877;48.246;9.220;2022-07-29T04:45:40;94011.59;;;16.24;85.20
73600;BME280;61877;48.246;9.220;2022-07-29T04:48:07;94014.47;;;16.02;85.69
73600;BME280;61877;48.246;9.220;2022-07-29T04:50:32;94021.53;;;16.10;85.39
73600;BME280;61877;48.246;9.220;2022-07-29T04:52:58;94014.47;;;15.98;85.97
73600;BME280;61877;48.246;9.220;2022-07-29T04:55:23;94018.75;;;16.03;86.58
73600;BME280;61877;48.246;9.220;2022-07-29T04:57:49;94016.16;;;16.17;86.75
73600;BME280;61877;48.246;9.220;2022-07-29T05:00:14;94019.31;;;16.22;86.61
73600;BME280;61877;48.246;9.220;2022-07-29T05:02:40;94017.84;;;16.32;85.79
73600;BME280;61877;48.246;9.220;2022-07-29T05:05:07;94027.19;;;16.38;85.54
73600;BME280;61877;48.246;9.220;2022-07-29T05:07:33;94029.16;;;16.44;85.14
73600;BME280;61877;48.246;9.220;2022-07-29T05:09:58;94024.97;;;16.50;85.15
73600;BME280;61877;48.246;9.220;2022-07-29T05:12:24;94019.19;;;16.52;84.97
73600;BME280;61877;48.246;9.220;2022-07-29T05:14:50;94031.84;;;16.41;84.67
73600;BME280;61877;48.246;9.220;2022-07-29T05:17:15;94032.59;;;16.38;84.45
73600;BME280;61877;48.246;9.220;2022-07-29T05:19:44;94027.97;;;16.42;85.13
73600;BME280;61877;48.246;9.220;2022-07-29T05:22:10;94038.06;;;16.41;83.66
73600;BME280;61877;48.246;9.220;2022-07-29T05:24:36;94037.41;;;16.55;84.52
73600;BME280;61877;48.246;9.220;2022-07-29T05:27:01;94036.63;;;16.54;84.44
73600;BME280;61877;48.246;9.220;2022-07-29T05:29:27;94037.53;;;16.72;83.73
73600;BME280;61877;48.246;9.220;2022-07-29T05:31:52;94029.84;;;16.82;83.83
73600;BME280;61877;48.246;9.220;2022-07-29T05:34:18;94037.25;;;16.88;83.21
73600;BME280;61877;48.246;9.220;2022-07-29T05:36:43;94038.47;;;16.98;82.39
73600;BME280;61877;48.246;9.220;2022-07-29T05:39:10;94032.19;;;16.87;82.65
73600;BME280;61877;48.246;9.220;2022-07-29T05:41:35;94034.28;;;17.07;82.13
73600;BME280;61877;48.246;9.220;2022-07-29T05:44:01;94026.84;;;16.94;82.18
73600;BME280;61877;48.246;9.220;2022-07-29T05:46:27;94033.44;;;16.96;82.11
73600;BME280;61877;48.246;9.220;2022-07-29T05:48:52;94039.66;;;17.04;81.94
73600;BME280;61877;48.246;9.220;2022-07-29T05:51:18;94035.06;;;17.08;82.06
73600;BME280;61877;48.246;9.220;2022-07-29T05:53:43;94035.47;;;17.13;82.25
73600;BME280;61877;48.246;9.220;2022-07-29T05:56:10;94039.72;;;17.11;82.12
73600;BME280;61877;48.246;9.220;2022-07-29T05:58:35;94040.50;;;17.15;82.92
73600;BME280;61877;48.246;9.220;2022-07-29T06:01:01;94051.44;;;17.29;82.01
73600;BME280;61877;48.246;9.220;2022-07-29T06:03:27;94048.41;;;17.41;81.54
73600;BME280;61877;48.246;9.220;2022-07-29T06:05:52;94050.06;;;17.56;81.47
73600;BME280;61877;48.246;9.220;2022-07-29T06:08:18;94048.16;;;17.70;80.50
73600;BME280;61877;48.246;9.220;2022-07-29T06:10:44;94052.41;;;17.71;80.38
73600;BME280;61877;48.246;9.220;2022-07-29T06:13:10;94054.38;;;17.74;79.90
73600;BME280;61877;48.246;9.220;2022-07-29T06:15:36;94045.50;;;17.88;79.03
73600;BME280;61877;48.246;9.220;2022-07-29T06:18:02;94054.84;;;18.08;79.63
73600;BME280;61877;48.246;9.220;2022-07-29T06:20:28;94060.31;;;18.19;78.18
73600;BME280;61877;48.246;9.220;2022-07-29T06:22:53;94054.81;;;17.97;78.45
73600;BME280;61877;48.246;9.220;2022-07-29T06:25:18;94047.50;;;18.16;78.24
73600;BME280;61877;48.246;9.220;2022-07-29T06:27:44;94057.25;;;18.41;78.54
73600;BME280;61877;48.246;9.220;2022-07-29T06:30:12;94055.72;;;18.61;78.38
73600;BME280;61877;48.246;9.220;2022-07-29T06:32:37;94049.91;;;18.77;77.42
73600;BME280;61877;48.246;9.220;2022-07-29T06:35:03;94045.59;;;19.04;76.03
73600;BME280;61877;48.246;9.220;2022-07-29T06:37:29;94047.53;;;19.10;75.30
73600;BME280;61877;48.246;9.220;2022-07-29T06:39:54;94052.16;;;19.27;75.10
73600;BME280;61877;48.246;9.220;2022-07-29T06:42:20;94049.78;;;19.54;74.31
73600;BME280;61877;48.246;9.220;2022-07-29T06:44:45;94052.56;;;19.33;73.08
73600;BME280;61877;48.246;9.220;2022-07-29T06:47:12;94040.78;;;19.71;71.91
73600;BME280;61877;48.246;9.220;2022-07-29T06:49:37;94048.66;;;19.48;72.72
73600;BME280;61877;48.246;9.220;2022-07-29T06:52:03;94050.16;;;19.63;73.29
73600;BME280;61877;48.246;9.220;2022-07-29T06:54:28;94050.06;;;19.84;72.35
73600;BME280;61877;48.246;9.220;2022-07-29T06:56:54;94052.38;;;19.86;72.39
73600;BME280;61877;48.246;9.220;2022-07-29T06:59:20;94054.31;;;19.89;72.60
73600;BME280;61877;48.246;9.220;2022-07-29T07:01:46;94058.09;;;20.16;73.37
73600;BME280;61877;48.246;9.220;2022-07-29T07:04:13;94069.72;;;20.23;72.93
73600;BME280;61877;48.246;9.220;2022-07-29T07:06:39;94070.47;;;20.31;72.32
73600;BME280;61877;48.246;9.220;2022-07-29T07:09:04;94068.16;;;20.26;72.91
73600;BME280;61877;48.246;9.220;2022-07-29T07:11:30;94064.25;;;20.27;73.33
73600;BME280;61877;48.246;9.220;2022-07-29T07:13:55;94061.91;;;20.80;71.97
73600;BME280;61877;48.246;9.220;2022-07-29T07:16:21;94061.34;;;21.03;70.54
73600;BME280;61877;48.246;9.220;2022-07-29T07:18:46;94063.41;;;21.32;69.50
73600;BME280;61877;48.246;9.220;2022-07-29T07:21:13;94062.88;;;21.48;68.43
73600;BME280;61877;48.246;9.220;2022-07-29T07:23:39;94067.28;;;21.72;69.06
73600;BME280;61877;48.246;9.220;2022-07-29T07:26:04;94062.00;;;21.92;68.85
73600;BME280;61877;48.246;9.220;2022-07-29T07:28:29;94073.09;;;21.77;65.47
73600;BME280;61877;48.246;9.220;2022-07-29T07:30:55;94072.84;;;21.99;67.80
73600;BME280;61877;48.246;9.220;2022-07-29T07:33:20;94078.38;;;21.95;66.50
73600;BME280;61877;48.246;9.220;2022-07-29T07:35:46;94069.81;;;22.50;67.54
73600;BME280;61877;48.246;9.220;2022-07-29T07:38:12;94067.66;;;22.38;63.89
73600;BME280;61877;48.246;9.220;2022-07-29T07:40:38;94073.97;;;22.01;67.12
73600;BME280;61877;48.246;9.220;2022-07-29T07:43:03;94076.69;;;22.05;64.97
73600;BME280;61877;48.246;9.220;2022-07-29T07:45:29;94072.38;;;22.34;64.45
73600;BME280;61877;48.246;9.220;2022-07-29T07:47:54;94076.84;;;22.21;64.83
73600;BME280;61877;48.246;9.220;2022-07-29T07:50:20;94070.75;;;22.40;62.82
73600;BME280;61877;48.246;9.220;2022-07-29T07:52:46;94067.88;;;22.47;62.93
73600;BME280;61877;48.246;9.220;2022-07-29T07:55:14;94072.63;;;22.73;64.11
73600;BME280;61877;48.246;9.220;2022-07-29T07:57:39;94070.81;;;22.63;64.46
73600;BME280;61877;48.246;9.220;2022-07-29T08:00:06;94068.19;;;22.56;63.92
73600;BME280;61877;48.246;9.220;2022-07-29T08:02:32;94080.13;;;22.39;67.29
73600;BME280;61877;48.246;9.220;2022-07-29T08:04:57;94076.19;;;22.70;67.96
73600;BME280;61877;48.246;9.220;2022-07-29T08:07:22;94078.47;;;22.45;67.19
73600;BME280;61877;48.246;9.220;2022-07-29T08:09:48;94076.28;;;22.63;68.55
73600;BME280;61877;48.246;9.220;2022-07-29T08:12:15;94079.06;;;22.59;68.96
73600;BME280;61877;48.246;9.220;2022-07-29T08:14:40;94078.56;;;22.68;68.76
73600;BME280;61877;48.246;9.220;2022-07-29T08:17:06;94086.81;;;22.64;69.06
73600;BME280;61877;48.246;9.220;2022-07-29T08:19:32;94080.84;;;22.73;69.44
73600;BME280;61877;48.246;9.220;2022-07-29T08:21:57;94092.94;;;23.22;67.65
73600;BME280;61877;48.246;9.220;2022-07-29T08:24:23;94087.72;;;23.73;65.32
73600;BME280;61877;48.246;9.220;2022-07-29T08:26:49;94084.56;;;23.94;64.01
73600;BME280;61877;48.246;9.220;2022-07-29T08:29:16;94095.63;;;23.91;63.97
73600;BME280;61877;48.246;9.220;2022-07-29T08:31:41;94088.31;;;23.84;63.66
73600;BME280;61877;48.246;9.220;2022-07-29T08:34:07;94089.72;;;24.32;63.67
73600;BME280;61877;48.246;9.220;2022-07-29T08:36:33;94089.09;;;24.04;63.16
73600;BME280;61877;48.246;9.220;2022-07-29T08:38:59;94090.44;;;24.36;61.62
73600;BME280;61877;48.246;9.220;2022-07-29T08:41:26;94101.09;;;24.66;61.06
73600;BME280;61877;48.246;9.220;2022-07-29T08:43:52;94102.22;;;24.88;62.37
73600;BME280;61877;48.246;9.220;2022-07-29T08:46:19;94104.59;;;24.86;60.02
73600;BME280;61877;48.246;9.220;2022-07-29T08:48:45;94106.31;;;24.80;60.25
73600;BME280;61877;48.246;9.220;2022-07-29T08:51:13;94106.59;;;24.66;62.06
73600;BME280;61877;48.246;9.220;2022-07-29T08:53:42;94117.78;;;24.19;63.38
73600;BME280;61877;48.246;9.220;2022-07-29T08:56:11;94115.38;;;24.21;61.60
73600;BME280;61877;48.246;9.220;2022-07-29T08:58:37;94128.56;;;23.87;62.85
73600;BME280;61877;48.246;9.220;2022-07-29T09:01:03;94121.41;;;23.93;63.34
73600;BME280;61877;48.246;9.220;2022-07-29T09:03:31;94130.09;;;23.69;64.36
73600;BME280;61877;48.246;9.220;2022-07-29T09:05:58;94119.25;;;23.62;64.52
73600;BME280;61877;48.246;9.220;2022-07-29T09:08:23;94120.97;;;23.75;63.58
73600;BME280;61877;48.246;9.220;2022-07-29T09:10:49;94122.00;;;24.44;63.37
73600;BME280;61877;48.246;9.220;2022-07-29T09:13:15;94115.44;;;24.93;60.25
73600;BME280;61877;48.246;9.220;2022-07-29T09:15:40;94123.00;;;24.89;60.21
73600;BME280;61877;48.246;9.220;2022-07-29T09:18:05;94122.88;;;24.76;59.84
73600;BME280;61877;48.246;9.220;2022-07-29T09:20:32;94119.88;;;24.32;59.50
73600;BME280;61877;48.246;9.220;2022-07-29T09:23:07;94128.94;;;24.48;61.38
73600;BME280;61877;48.246;9.220;2022-07-29T09:25:33;94126.69;;;24.43;60.12
73600;BME280;61877;48.246;9.220;2022-07-29T09:28:05;94129.16;;;24.38;59.13
73600;BME280;61877;48.246;9.220;2022-07-29T09:30:31;94132.78;;;23.92;61.94
73600;BME280;61877;48.246;9.220;2022-07-29T09:32:59;94121.09;;;24.31;62.51
73600;BME280;61877;48.246;9.220;2022-07-29T09:35:26;94121.00;;;24.54;61.43
73600;BME280;61877;48.246;9.220;2022-07-29T09:37:53;94119.19;;;24.83;60.43
73600;BME280;61877;48.246;9.220;2022-07-29T09:40:20;94126.75;;;24.79;59.26
73600;BME280;61877;48.246;9.220;2022-07-29T09:42:46;94131.09;;;24.76;61.41
73600;BME280;61877;48.246;9.220;2022-07-29T09:45:13;94118.16;;;24.77;61.41
73600;BME280;61877;48.246;9.220;2022-07-29T09:47:50;94116.22;;;25.25;58.74
73600;BME280;61877;48.246;9.220;2022-07-29T09:50:16;94126.41;;;24.93;59.14
73600;BME280;61877;48.246;9.220;2022-07-29T09:52:46;94122.66;;;25.67;58.06
73600;BME280;61877;48.246;9.220;2022-07-29T09:55:13;94127.59;;;26.04;55.68
73600;BME280;61877;48.246;9.220;2022-07-29T09:57:42;94109.38;;;26.23;56.11
73600;BME280;61877;48.246;9.220;2022-07-29T10:00:10;94103.03;;;26.38;54.75
73600;BME280;61877;48.246;9.220;2022-07-29T10:02:37;94100.50;;;26.31;55.24
73600;BME280;61877;48.246;9.220;2022-07-29T10:05:05;94096.19;;;26.30;55.46
73600;BME280;61877;48.246;9.220;2022-07-29T10:07:44;94099.97;;;26.49;54.31
73600;BME280;61877;48.246;9.220;2022-07-29T10:10:10;94092.09;;;26.22;52.53
73600;BME280;61877;48.246;9.220;2022-07-29T10:12:48;94089.72;;;26.37;53.74
73600;BME280;61877;48.246;9.220;2022-07-29T10:15:15;94095.31;;;26.33;52.65
73600;BME280;61877;48.246;9.220;2022-07-29T10:17:41;94092.31;;;26.15;52.17
73600;BME280;61877;48.246;9.220;2022-07-29T10:20:08;94087.75;;;25.52;53.74
73600;BME280;61877;48.246;9.220;2022-07-29T10:22:34;94090.72;;;26.02;55.99
73600;BME280;61877;48.246;9.220;2022-07-29T10:24:59;94092.00;;;26.92;51.00
73600;BME280;61877;48.246;9.220;2022-07-29T10:27:25;94089.22;;;27.05;53.39
73600;BME280;61877;48.246;9.220;2022-07-29T10:29:53;94088.63;;;26.47;52.22
73600;BME280;61877;48.246;9.220;2022-07-29T10:32:34;94089.63;;;25.55;52.71
73600;BME280;61877;48.246;9.220;2022-07-29T10:35:15;94095.81;;;25.87;54.26
73600;BME280;61877;48.246;9.220;2022-07-29T10:37:59;94087.03;;;25.31;54.39
73600;BME280;61877;48.246;9.220;2022-07-29T10:40:36;94091.94;;;25.08;53.71
73600;BME280;61877;48.246;9.220;2022-07-29T10:43:16;94088.59;;;25.00;52.39
73600;BME280;61877;48.246;9.220;2022-07-29T10:45:55;94092.13;;;25.17;54.72
73600;BME280;61877;48.246;9.220;2022-07-29T10:48:25;94088.53;;;25.36;55.76
73600;BME280;61877;48.246;9.220;2022-07-29T10:50:57;94093.31;;;25.48;53.62
73600;BME280;61877;48.246;9.220;2022-07-29T10:53:45;94088.00;;;25.41;53.83
73600;BME280;61877;48.246;9.220;2022-07-29T10:56:23;94094.50;;;25.47;52.95
73600;BME280;61877;48.246;9.220;2022-07-29T10:59:23;94094.94;;;25.90;53.52
73600;BME280;61877;48.246;9.220;2022-07-29T11:01:51;94098.72;;;25.96;51.74
73600;BME280;61877;48.246;9.220;2022-07-29T11:07:21;94087.16;;;26.96;48.98
73600;BME280;61877;48.246;9.220;2022-07-29T11:10:23;94071.84;;;27.08;49.23
73600;BME280;61877;48.246;9.220;2022-07-29T11:12:48;94084.69;;;28.17;47.56
73600;BME280;61877;48.246;9.220;2022-07-29T11:15:15;94069.31;;;28.59;46.66
73600;BME280;61877;48.246;9.220;2022-07-29T11:18:08;94067.81;;;28.88;44.41
73600;BME280;61877;48.246;9.220;2022-07-29T11:20:38;94065.19;;;29.34;43.59
73600;BME280;61877;48.246;9.220;2022-07-29T11:23:26;94065.00;;;29.68;43.32
73600;BME280;61877;48.246;9.220;2022-07-29T11:26:15;94071.25;;;29.68;41.67
73600;BME280;61877;48.246;9.220;2022-07-29T11:28:50;94063.75;;;30.05;44.44
73600;BME280;61877;48.246;9.220;2022-07-29T11:31:32;94059.00;;;29.69;40.43
73600;BME280;61877;48.246;9.220;2022-07-29T11:34:16;94060.00;;;29.45;42.00
73600;BME280;61877;48.246;9.220;2022-07-29T11:39:42;94057.72;;;29.61;41.60
73600;BME280;61877;48.246;9.220;2022-07-29T11:45:48;94053.88;;;31.00;35.95
73600;BME280;61877;48.246;9.220;2022-07-29T11:48:17;94066.38;;;31.28;32.81
73600;BME280;61877;48.246;9.220;2022-07-29T11:51:00;94057.50;;;30.82;35.02
73600;BME280;61877;48.246;9.220;2022-07-29T11:53:35;94059.50;;;30.91;32.49
73600;BME280;61877;48.246;9.220;2022-07-29T11:56:01;94061.44;;;30.12;38.94
73600;BME280;61877;48.246;9.220;2022-07-29T11:58:36;94057.75;;;30.15;36.15
73600;BME280;61877;48.246;9.220;2022-07-29T12:01:17;94054.69;;;30.91;36.57
73600;BME280;61877;48.246;9.220;2022-07-29T12:03:42;94056.88;;;30.87;35.16
73600;BME280;61877;48.246;9.220;2022-07-29T12:06:14;94059.16;;;30.29;34.05
73600;BME280;61877;48.246;9.220;2022-07-29T12:08:47;94056.00;;;29.46;36.81
73600;BME280;61877;48.246;9.220;2022-07-29T12:11:40;94057.47;;;29.77;35.29
73600;BME280;61877;48.246;9.220;2022-07-29T12:14:24;94054.34;;;29.57;36.00
73600;BME280;61877;48.246;9.220;2022-07-29T12:16:51;94055.47;;;28.80;38.25
73600;BME280;61877;48.246;9.220;2022-07-29T12:19:21;94051.13;;;28.70;35.78
73600;BME280;61877;48.246;9.220;2022-07-29T12:21:50;94054.78;;;28.15;36.07
73600;BME280;61877;48.246;9.220;2022-07-29T12:24:18;94055.81;;;27.74;36.64
73600;BME280;61877;48.246;9.220;2022-07-29T12:26:50;94048.00;;;28.07;34.29
73600;BME280;61877;48.246;9.220;2022-07-29T12:29:17;94053.06;;;27.74;34.81
73600;BME280;61877;48.246;9.220;2022-07-29T12:31:57;94053.03;;;27.87;36.14
73600;BME280;61877;48.246;9.220;2022-07-29T12:35:22;94051.00;;;28.22;33.82
73600;BME280;61877;48.246;9.220;2022-07-29T12:38:02;94054.66;;;28.71;35.07
73600;BME280;61877;48.246;9.220;2022-07-29T12:41:08;94055.09;;;28.39;34.28
73600;BME280;61877;48.246;9.220;2022-07-29T12:53:24;94052.22;;;27.31;35.83
73600;BME280;61877;48.246;9.220;2022-07-29T12:56:21;94056.56;;;27.53;35.67
73600;BME280;61877;48.246;9.220;2022-07-29T12:59:12;94058.72;;;27.24;35.36
73600;BME280;61877;48.246;9.220;2022-07-29T13:13:55;94051.78;;;26.95;37.11
73600;BME280;61877;48.246;9.220;2022-07-29T13:16:20;94058.06;;;26.95;38.97
73600;BME280;61877;48.246;9.220;2022-07-29T13:18:45;94060.28;;;26.88;39.03
73600;BME280;61877;48.246;9.220;2022-07-29T13:21:13;94072.28;;;26.94;38.39
73600;BME280;61877;48.246;9.220;2022-07-29T13:23:38;94072.47;;;26.36;41.02
73600;BME280;61877;48.246;9.220;2022-07-29T13:26:05;94073.19;;;26.24;40.37
73600;BME280;61877;48.246;9.220;2022-07-29T13:28:30;94083.47;;;25.79;40.66
73600;BME280;61877;48.246;9.220;2022-07-29T13:30:57;94084.13;;;25.55;40.84
73600;BME280;61877;48.246;9.220;2022-07-29T13:33:22;94075.28;;;25.31;42.67
73600;BME280;61877;48.246;9.220;2022-07-29T13:35:48;94065.78;;;25.03;43.04
73600;BME280;61877;48.246;9.220;2022-07-29T13:38:13;94063.00;;;24.87;43.90
73600;BME280;61877;48.246;9.220;2022-07-29T13:40:40;94064.69;;;24.65;43.73